アナディリ の空港の天気 - METARとTAF

アナディリ・ウゴルヌイ空港 ( UHMA / DYR ) - ロシア アナディリ
飛行場実況気象(Metar)
観測時間11/20 14:30 MAGT (11/20 03:30 UTC)
風向・風速北 7m/s
視程10km以上
天気現象
なし
気温-10℃
湿度79%
気圧1020hPa
METARUHMA 200330Z 36007MPS CAVOK M10/M13 Q1020 R88/79//30 NOSIG RMK END R01/01007MPS QFE761/1015
過去の天気等 Google飛行場航空写真 Wunderground天気予報

過去48時間のMETAR

飛行場予報(TAF)
発表時間: 11/20 12:54 MAGT (11/20 01:54 UTC)
予報対象時間: 20日14時 MAGT ~ 21日14時 MAGT
風向・風速北 6m/s 瞬間風速 11m/s
視程10km以上
全天の4割程度の雲 雲底高度 300m
全天の8割程度の雲 雲底高度 910m
20日15時 MAGT ~ 20日16時 MAGT に徐々に
風向・風速東南東 6m/s 瞬間風速 11m/s
20日15時 MAGT ~ 20日20時 MAGT に一時的に
風向・風速東 8m/s 瞬間風速 13m/s
視程4,000m
天気現象弱い雪
全天の4割程度の雲 雲底高度 180m
全天の8割程度の雲 雲底高度 610m
20日20時 MAGT から
風向・風速東南東 11m/s 瞬間風速 16m/s
視程4,000m
天気現象弱い雪 高い地吹雪
全天の8割程度の雲 雲底高度 210m
全天を覆う雲 雲底高度 520m
20日20時 MAGT ~ 21日5時 MAGT に一時的に
風向・風速東 16m/s 瞬間風速 21m/s
視程2,000m
天気現象しゅう雪 高い地吹雪
全天の8割程度の雲 雲底高度 180m
全天を覆う積乱雲 雲底高度 520m
21日5時 MAGT ~ 21日7時 MAGT に徐々に
風向・風速東南東 20m/s 瞬間風速 25m/s
視程2,000m
天気現象雪雨
TAF UHMA 200154Z 2003/2103 36006G11MPS 9999 SCT010 BKN030
BECMG 2004/2005 11006G11MPS
TEMPO 2004/2009 09008G13MPS 4000 -SN SCT006 BKN020
FM200900 11011G16MPS 4000 -SN BLSN BKN007 OVC017
TEMPO 2009/2018 09016G21MPS 2000 SHSN BLSN BKN006 OVC017CB
BECMG 2018/2020 11020G25MPS 2000 SNRA